Terminal Aerodrome Forecast
Issued by NWS

Home | Current Version | Previous Version | Graphics & Text | Print | Product List | Glossary On
Versions: 1 2 3 4 5 6 7 8 9 10 11 12 13 14 15
000
FTUS43 KICT 261735
TAFSLN
TAF
KSLN 261735Z 2618/2718 01013KT P6SM SKC
     FM270100 08006KT P6SM SCT250
     FM270900 10007KT P6SM VCTS BKN050CB
     FM271300 09010KT P6SM SCT020 BKN035
     FM271700 02012KT P6SM BKN035=

USA.gov is the U.S. government's official web portal to all federal, state and local government web resources and services.